createdAt,value
2022-11-01T00:02:20.268Z,9.73
2022-11-01T00:04:48.105Z,8.07
2022-11-01T00:07:15.860Z,7.78
2022-11-01T00:09:43.739Z,8.23
2022-11-01T00:12:11.420Z,9.07
2022-11-01T00:14:39.246Z,8.50
2022-11-01T00:17:07.049Z,8.55
2022-11-01T00:19:34.951Z,8.65
2022-11-01T00:22:02.715Z,8.75
2022-11-01T00:24:31.787Z,8.10
2022-11-01T00:27:00.342Z,8.45
2022-11-01T00:29:28.101Z,8.93
2022-11-01T00:31:55.988Z,8.57
2022-11-01T00:34:23.879Z,9.13
2022-11-01T00:36:51.604Z,9.68
2022-11-01T00:39:19.461Z,9.45
2022-11-01T00:41:47.238Z,9.70
2022-11-01T00:44:15.109Z,9.55
2022-11-01T00:46:42.962Z,8.27
2022-11-01T00:49:10.713Z,8.18
2022-11-01T00:51:38.441Z,7.85
2022-11-01T00:54:06.255Z,9.40
2022-11-01T00:56:34.301Z,9.32
2022-11-01T00:59:02.158Z,10.05
2022-11-01T01:01:32.485Z,9.52
2022-11-01T01:04:00.491Z,9.07
2022-11-01T01:06:28.299Z,8.43
2022-11-01T01:09:00.658Z,8.23
2022-11-01T01:14:21.003Z,9.95
2022-11-01T01:16:48.808Z,9.73
2022-11-01T01:19:16.614Z,9.48
2022-11-01T01:21:44.433Z,10.00
2022-11-01T01:24:12.326Z,9.43
2022-11-01T01:26:40.223Z,8.38
2022-11-01T01:29:07.871Z,7.75
2022-11-01T01:31:35.608Z,8.90
2022-11-01T01:34:03.449Z,7.35
2022-11-01T01:36:31.244Z,8.18
2022-11-01T01:38:59.013Z,7.85
2022-11-01T01:41:45.530Z,8.55
2022-11-01T01:44:47.856Z,7.95
2022-11-01T01:47:19.798Z,7.30
2022-11-01T01:49:49.490Z,7.88
2022-11-01T01:52:17.247Z,8.23
2022-11-01T01:54:45.049Z,7.85
2022-11-01T01:57:13.091Z,7.88
2022-11-01T01:59:41.422Z,8.48
2022-11-01T02:02:09.667Z,7.53
2022-11-01T02:04:46.484Z,7.25
2022-11-01T02:07:14.175Z,7.88
2022-11-01T02:09:43.024Z,7.65
2022-11-01T02:12:13.108Z,8.48
2022-11-01T02:14:42.588Z,8.27
2022-11-01T02:17:24.416Z,9.18
2022-11-01T02:20:16.643Z,8.25
2022-11-01T02:23:03.397Z,7.65
2022-11-01T02:25:43.239Z,7.90
2022-11-01T02:28:32.295Z,7.88
2022-11-01T02:31:38.404Z,7.45
2022-11-01T02:34:48.088Z,8.55
2022-11-01T02:38:14.244Z,7.80
2022-11-01T02:40:51.084Z,8.68
2022-11-01T02:43:27.099Z,7.53
2022-11-01T02:45:55.018Z,8.25
2022-11-01T02:48:23.964Z,6.85
2022-11-01T02:51:01.549Z,8.05
2022-11-01T02:53:29.335Z,8.32
2022-11-01T02:55:57.518Z,7.70
2022-11-01T02:58:32.235Z,8.48
2022-11-01T03:01:00.166Z,8.85
2022-11-01T03:03:31.590Z,8.50
2022-11-01T03:05:59.234Z,9.02
2022-11-01T03:08:52.436Z,7.60
2022-11-01T03:11:20.973Z,8.02
2022-11-01T03:14:24.033Z,8.95
2022-11-01T03:17:08.547Z,9.45
2022-11-01T03:20:00.654Z,8.93
2022-11-01T03:22:50.208Z,8.32
2022-11-01T03:25:43.170Z,8.13
2022-11-01T03:28:10.850Z,7.95
2022-11-01T03:30:43.155Z,8.55
2022-11-01T03:33:13.733Z,8.07
2022-11-01T03:35:44.904Z,8.45
2022-11-01T03:38:16.413Z,7.90
2022-11-01T03:43:15.226Z,7.97
2022-11-01T03:45:43.120Z,8.43
2022-11-01T03:48:11.291Z,8.02
2022-11-01T03:50:40.485Z,7.13
2022-11-01T03:53:08.382Z,7.18
2022-11-01T03:55:36.375Z,8.13
2022-11-01T03:58:04.712Z,7.82
2022-11-01T04:00:36.525Z,6.90
2022-11-01T04:03:04.829Z,7.65
2022-11-01T04:05:34.125Z,7.43
2022-11-01T04:08:01.985Z,7.50
2022-11-01T04:10:30.380Z,7.82
2022-11-01T04:12:58.821Z,6.88
2022-11-01T04:15:46.625Z,6.45
2022-11-01T04:18:34.962Z,7.82
2022-11-01T04:21:20.015Z,7.07
2022-11-01T04:23:48.414Z,6.78
2022-11-01T04:26:18.562Z,8.00
2022-11-01T04:28:57.403Z,8.75
2022-11-01T04:31:36.286Z,7.72
2022-11-01T04:34:05.140Z,8.30
2022-11-01T04:36:33.186Z,8.32
2022-11-01T04:39:01.120Z,8.27
2022-11-01T04:41:30.224Z,7.55
2022-11-01T04:43:59.993Z,7.55
2022-11-01T04:46:31.724Z,8.20
2022-11-01T04:49:00.711Z,8.10
2022-11-01T04:51:29.330Z,8.43
2022-11-01T04:53:57.475Z,7.97
2022-11-01T04:56:25.592Z,8.52
2022-11-01T04:58:53.495Z,8.20
2022-11-01T05:01:21.383Z,8.18
2022-11-01T05:03:49.898Z,7.80
2022-11-01T05:06:18.045Z,9.00
2022-11-01T05:08:46.015Z,9.32
2022-11-01T05:11:13.995Z,9.48
2022-11-01T05:13:42.089Z,9.57
2022-11-01T05:16:25.238Z,8.35
2022-11-01T05:18:53.243Z,7.72
2022-11-01T05:21:21.308Z,7.90
2022-11-01T05:23:50.050Z,8.02
2022-11-01T05:26:18.173Z,8.10
2022-11-01T05:28:46.127Z,7.82
2022-11-01T05:31:13.978Z,8.32
2022-11-01T05:33:41.708Z,7.35
2022-11-01T05:36:09.579Z,7.85
2022-11-01T05:38:37.512Z,7.97
2022-11-01T05:41:05.617Z,7.07
2022-11-01T05:43:33.604Z,7.40
2022-11-01T05:46:04.649Z,7.45
2022-11-01T05:48:32.736Z,7.70
2022-11-01T05:51:00.924Z,8.48
2022-11-01T05:53:28.732Z,7.82
2022-11-01T05:56:00.156Z,7.32
2022-11-01T06:01:04.094Z,6.97
2022-11-01T06:03:32.479Z,8.15
2022-11-01T06:06:01.426Z,7.68
2022-11-01T06:08:29.373Z,8.65
2022-11-01T06:11:06.898Z,8.65
2022-11-01T06:13:35.213Z,8.18
2022-11-01T06:16:05.222Z,7.65
2022-11-01T06:18:34.024Z,7.60
2022-11-01T06:21:02.088Z,8.35
2022-11-01T06:23:29.903Z,7.60
2022-11-01T06:26:02.645Z,8.40
2022-11-01T06:28:30.348Z,8.40
2022-11-01T06:31:02.576Z,8.88
2022-11-01T06:33:31.242Z,8.50
2022-11-01T06:35:59.114Z,7.55
2022-11-01T06:38:26.851Z,8.32
2022-11-01T06:40:54.823Z,7.47
2022-11-01T06:43:22.750Z,7.75
2022-11-01T06:45:50.818Z,7.13
2022-11-01T06:48:18.761Z,8.48
2022-11-01T06:50:46.425Z,8.18
2022-11-01T06:53:14.167Z,8.75
2022-11-01T06:55:41.872Z,8.10
2022-11-01T06:58:10.233Z,7.85
2022-11-01T07:00:38.109Z,7.75
2022-11-01T07:03:08.157Z,8.57
2022-11-01T07:05:37.630Z,7.45
2022-11-01T07:08:09.970Z,8.05
2022-11-01T07:10:40.043Z,8.02
2022-11-01T07:13:10.043Z,7.20
2022-11-01T07:15:37.984Z,9.52
2022-11-01T07:18:08.549Z,8.85
2022-11-01T07:20:42.322Z,7.47
2022-11-01T07:23:16.139Z,7.68
2022-11-01T07:25:44.525Z,7.30
2022-11-01T07:28:14.617Z,6.60
2022-11-01T07:30:42.483Z,7.18
2022-11-01T07:33:10.378Z,6.75
2022-11-01T07:35:38.540Z,6.75
2022-11-01T07:38:09.813Z,6.75
2022-11-01T07:40:41.118Z,7.15
2022-11-01T07:43:09.644Z,6.20
2022-11-01T07:45:38.001Z,6.22
2022-11-01T07:48:10.596Z,6.35
2022-11-01T07:50:39.939Z,6.72
2022-11-01T07:53:13.959Z,6.70
2022-11-01T07:55:42.515Z,6.32
2022-11-01T07:58:10.777Z,5.63
2022-11-01T08:00:39.136Z,5.88
2022-11-01T08:03:12.576Z,6.72
2022-11-01T08:05:41.270Z,5.45
2022-11-01T08:08:09.598Z,4.78
2022-11-01T08:10:38.269Z,3.70
2022-11-01T08:13:15.318Z,2.83
2022-11-01T08:15:43.680Z,3.10
2022-11-01T08:18:11.550Z,2.95
2022-11-01T08:20:39.485Z,2.85
2022-11-01T08:23:07.789Z,2.58
2022-11-01T08:25:36.241Z,2.65
2022-11-01T08:28:07.500Z,3.05
2022-11-01T08:33:04.813Z,2.80
2022-11-01T08:35:34.268Z,2.72
2022-11-01T08:38:03.708Z,2.33
2022-11-01T08:40:32.819Z,2.75
2022-11-01T08:43:01.255Z,2.47
2022-11-01T08:45:30.102Z,2.42
2022-11-01T08:48:08.387Z,2.38
2022-11-01T08:50:36.798Z,2.28
2022-11-01T08:53:09.646Z,2.10
2022-11-01T08:55:38.255Z,2.50
2022-11-01T08:58:08.182Z,2.17
2022-11-01T09:00:36.778Z,2.65
2022-11-01T09:03:05.287Z,2.40
2022-11-01T09:05:33.449Z,3.17
2022-11-01T09:08:01.860Z,2.15
2022-11-01T09:10:31.183Z,2.72
2022-11-01T09:13:02.980Z,2.38
2022-11-01T09:15:31.497Z,2.55
2022-11-01T09:17:59.314Z,2.17
2022-11-01T09:20:28.534Z,2.38
2022-11-01T09:22:56.517Z,2.28
2022-11-01T09:25:24.975Z,2.15
2022-11-01T09:27:52.767Z,2.25
2022-11-01T09:30:21.834Z,2.33
2022-11-01T09:32:49.847Z,2.63
2022-11-01T09:35:18.389Z,2.88
2022-11-01T09:37:46.393Z,2.35
2022-11-01T09:40:15.375Z,2.20
2022-11-01T09:42:45.117Z,2.63
2022-11-01T09:45:21.846Z,2.55
2022-11-01T09:47:53.941Z,1.80
2022-11-01T09:50:31.165Z,1.73
2022-11-01T09:53:00.734Z,2.30
2022-11-01T09:55:40.468Z,2.45
2022-11-01T09:58:16.158Z,2.17
2022-11-01T10:00:56.463Z,2.03
2022-11-01T10:04:21.735Z,2.20
2022-11-01T10:06:58.980Z,1.90
2022-11-01T10:09:50.485Z,2.03
2022-11-01T10:12:21.853Z,2.00
2022-11-01T10:15:01.227Z,1.70
2022-11-01T10:17:38.353Z,2.15
2022-11-01T10:20:08.337Z,1.63
2022-11-01T10:22:38.072Z,1.92
2022-11-01T10:25:25.290Z,1.73
2022-11-01T10:28:21.348Z,1.75
2022-11-01T10:30:54.170Z,1.92
2022-11-01T10:33:28.875Z,2.53
2022-11-01T10:36:03.728Z,2.13
2022-11-01T10:41:52.557Z,1.88
2022-11-01T10:44:38.601Z,1.90
2022-11-01T10:47:10.044Z,2.22
2022-11-01T10:50:04.971Z,1.75
2022-11-01T10:52:43.887Z,2.00
2022-11-01T10:55:36.048Z,1.90
2022-11-01T10:58:23.669Z,1.92
2022-11-01T11:00:51.694Z,2.22
2022-11-01T11:03:26.284Z,2.13
2022-11-01T11:05:55.512Z,1.77
2022-11-01T11:08:24.721Z,1.88
2022-11-01T11:10:53.636Z,1.88
2022-11-01T11:13:23.507Z,2.30
2022-11-01T11:16:16.798Z,1.92
2022-11-01T11:19:21.785Z,2.00
2022-11-01T11:21:52.007Z,1.70
2022-11-01T11:24:25.366Z,2.03
2022-11-01T11:26:57.626Z,1.77
2022-11-01T11:29:52.226Z,1.70
2022-11-01T11:32:41.086Z,1.83
2022-11-01T11:35:14.961Z,2.17
2022-11-01T11:37:51.928Z,1.95
2022-11-01T11:40:27.713Z,2.08
2022-11-01T11:43:14.023Z,1.70
2022-11-01T11:45:41.924Z,1.50
2022-11-01T11:48:22.958Z,1.70
2022-11-01T11:51:04.530Z,1.30
2022-11-01T11:53:33.764Z,1.50
2022-11-01T11:56:03.957Z,1.55
2022-11-01T11:58:38.849Z,1.58
2022-11-01T12:01:09.422Z,1.75
2022-11-01T12:06:39.329Z,1.77
2022-11-01T12:09:10.262Z,1.63
2022-11-01T12:11:47.852Z,2.17
2022-11-01T12:14:23.369Z,1.60
2022-11-01T12:16:51.704Z,1.75
2022-11-01T12:19:29.487Z,1.85
2022-11-01T12:22:02.851Z,1.50
2022-11-01T12:24:49.812Z,1.50
2022-11-01T12:27:23.283Z,1.55
2022-11-01T12:30:11.764Z,1.27
2022-11-01T12:32:54.659Z,2.35
2022-11-01T12:35:33.222Z,1.45
2022-11-01T12:38:10.430Z,1.50
2022-11-01T12:40:39.507Z,2.03
2022-11-01T12:43:23.921Z,1.73
2022-11-01T12:46:01.967Z,1.25
2022-11-01T12:48:37.745Z,1.27
2022-11-01T12:51:28.107Z,1.52
2022-11-01T12:54:12.342Z,1.88
2022-11-01T12:56:40.578Z,1.35
2022-11-01T12:59:11.421Z,1.45
2022-11-01T13:01:57.903Z,1.42
2022-11-01T13:04:55.971Z,1.38
2022-11-01T13:07:39.813Z,1.30
2022-11-01T13:10:46.710Z,1.25
2022-11-01T13:13:38.674Z,1.35
2022-11-01T13:16:22.369Z,1.50
2022-11-01T13:18:59.347Z,1.23
2022-11-01T13:21:34.783Z,1.20
2022-11-01T13:24:26.132Z,1.10
2022-11-01T13:27:15.529Z,1.20
2022-11-01T13:29:53.676Z,1.30
2022-11-01T13:32:41.305Z,1.15
2022-11-01T13:35:37.233Z,1.20
2022-11-01T13:38:44.178Z,1.02
2022-11-01T13:41:22.555Z,1.25
2022-11-01T13:44:13.645Z,0.90
2022-11-01T13:47:09.693Z,0.70
2022-11-01T13:49:59.481Z,1.52
2022-11-01T13:52:31.862Z,0.77
2022-11-01T13:55:27.401Z,1.20
2022-11-01T13:57:55.442Z,0.77
2022-11-01T14:00:44.810Z,1.10
2022-11-01T14:03:26.181Z,0.90
2022-11-01T14:06:12.300Z,0.80
2022-11-01T14:08:52.366Z,0.80
2022-11-01T14:11:41.759Z,1.23
2022-11-01T14:14:31.470Z,0.70
2022-11-01T14:17:20.426Z,0.80
2022-11-01T14:19:58.845Z,0.70
2022-11-01T14:22:35.787Z,0.88
2022-11-01T14:25:14.133Z,0.85
2022-11-01T14:27:48.853Z,0.95
2022-11-01T14:30:25.011Z,0.60
2022-11-01T14:32:58.449Z,0.65
2022-11-01T14:35:33.794Z,0.60
2022-11-01T14:38:07.077Z,0.90
2022-11-01T14:40:47.123Z,1.08
2022-11-01T14:43:24.479Z,0.98
2022-11-01T14:46:04.386Z,0.80
2022-11-01T14:48:40.698Z,1.23
2022-11-01T14:51:19.942Z,0.70
2022-11-01T14:53:49.652Z,1.00
2022-11-01T14:56:23.981Z,0.70
2022-11-01T14:58:51.786Z,0.50
2022-11-01T15:01:24.483Z,0.70
2022-11-01T15:03:57.126Z,0.60
2022-11-01T15:06:29.666Z,0.55
2022-11-01T15:09:03.667Z,0.52
2022-11-01T15:11:33.569Z,0.60
2022-11-01T15:14:04.963Z,0.90
2022-11-01T15:16:35.645Z,1.05
2022-11-01T15:19:15.159Z,0.70
2022-11-01T15:21:47.305Z,0.80
2022-11-01T15:24:20.893Z,0.68
2022-11-01T15:26:49.122Z,0.68
2022-11-01T15:29:19.545Z,0.70
2022-11-01T15:31:50.894Z,0.88
2022-11-01T15:34:27.892Z,0.70
2022-11-01T15:36:56.261Z,0.80
2022-11-01T15:39:26.121Z,0.75
2022-11-01T15:41:56.418Z,1.00
2022-11-01T15:44:26.262Z,1.40
2022-11-01T15:47:02.272Z,1.00
2022-11-01T15:49:33.554Z,1.02
2022-11-01T15:52:06.029Z,1.85
2022-11-01T15:54:45.384Z,1.00
2022-11-01T15:57:49.358Z,0.90
2022-11-01T16:00:37.688Z,0.85
2022-11-01T16:03:17.965Z,0.50
2022-11-01T16:05:48.395Z,0.68
2022-11-01T16:08:37.834Z,1.13
2022-11-01T16:11:08.066Z,1.20
2022-11-01T16:13:36.706Z,1.10
2022-11-01T16:16:13.800Z,0.60
2022-11-01T16:18:44.032Z,1.27
2022-11-01T16:21:20.747Z,0.80
2022-11-01T16:23:59.317Z,0.70
2022-11-01T16:26:27.757Z,0.57
2022-11-01T16:28:56.188Z,0.57
2022-11-01T16:31:26.219Z,0.50
2022-11-01T16:33:55.531Z,0.50
2022-11-01T16:36:42.368Z,0.70
2022-11-01T16:39:31.427Z,0.60
2022-11-01T16:42:00.178Z,1.20
2022-11-01T16:44:28.408Z,0.68
2022-11-01T16:46:56.449Z,1.02
2022-11-01T16:49:27.257Z,0.73
2022-11-01T16:51:56.725Z,1.05
2022-11-01T16:54:28.696Z,1.30
2022-11-01T16:56:58.789Z,0.90
2022-11-01T16:59:37.073Z,1.30
2022-11-01T17:02:31.521Z,0.85
2022-11-01T17:05:21.015Z,0.75
2022-11-01T17:07:52.277Z,0.90
2022-11-01T17:10:28.674Z,1.13
2022-11-01T17:13:01.407Z,1.48
2022-11-01T17:15:29.866Z,1.40
2022-11-01T17:18:06.288Z,0.75
2022-11-01T17:20:34.589Z,0.90
2022-11-01T17:23:02.469Z,0.90
2022-11-01T17:25:31.521Z,0.90
2022-11-01T17:27:59.415Z,1.25
2022-11-01T17:30:27.395Z,1.17
2022-11-01T17:32:55.272Z,2.78
2022-11-01T17:35:26.613Z,1.75
2022-11-01T17:37:55.933Z,1.50
2022-11-01T17:40:28.044Z,4.60
2022-11-01T17:42:56.168Z,2.35
2022-11-01T17:45:24.090Z,1.73
2022-11-01T17:47:56.024Z,1.60
2022-11-01T17:50:23.921Z,1.70
2022-11-01T17:52:51.868Z,2.22
2022-11-01T17:55:19.840Z,1.85
2022-11-01T17:57:48.862Z,3.92
2022-11-01T18:00:17.339Z,2.42
2022-11-01T18:02:45.133Z,1.52
2022-11-01T18:05:14.113Z,1.85
2022-11-01T18:07:43.989Z,1.92
2022-11-01T18:10:19.777Z,5.30
2022-11-01T18:13:10.506Z,4.18
2022-11-01T18:16:08.417Z,2.38
2022-11-01T18:18:39.020Z,3.90
2022-11-01T18:21:32.091Z,2.17
2022-11-01T18:24:15.980Z,1.58
2022-11-01T18:26:46.470Z,1.70
2022-11-01T18:29:21.803Z,2.40
2022-11-01T18:32:24.797Z,2.30
2022-11-01T18:34:59.762Z,2.22
2022-11-01T18:37:35.609Z,2.40
2022-11-01T18:40:30.972Z,2.70
2022-11-01T18:42:58.870Z,2.45
2022-11-01T18:45:33.899Z,7.57
2022-11-01T18:48:22.621Z,3.88
2022-11-01T18:50:51.119Z,6.70
2022-11-01T18:53:20.182Z,3.95
2022-11-01T18:55:49.606Z,4.00
2022-11-01T18:58:22.502Z,1.80
2022-11-01T19:01:14.000Z,1.63
2022-11-01T19:03:42.802Z,2.70
2022-11-01T19:06:23.752Z,5.85
2022-11-01T19:09:12.393Z,2.10
2022-11-01T19:11:40.329Z,6.32
2022-11-01T19:14:13.156Z,2.80
2022-11-01T19:16:40.892Z,19.42
2022-11-01T19:19:17.663Z,16.40
2022-11-01T19:21:45.531Z,8.55
2022-11-01T19:24:36.763Z,3.75
2022-11-01T19:27:14.891Z,2.20
2022-11-01T19:29:43.338Z,3.53
2022-11-01T19:32:14.250Z,2.15
2022-11-01T19:34:42.400Z,1.80
2022-11-01T19:37:33.190Z,1.65
2022-11-01T19:40:07.476Z,2.45
2022-11-01T19:42:36.303Z,3.65
2022-11-01T19:45:25.277Z,1.73
2022-11-01T19:47:53.324Z,1.45
2022-11-01T19:50:25.084Z,1.48
2022-11-01T19:52:56.481Z,1.50
2022-11-01T19:55:39.831Z,1.45
2022-11-01T19:58:25.939Z,1.20
2022-11-01T20:01:09.308Z,1.45
2022-11-01T20:03:56.923Z,1.70
2022-11-01T20:06:37.478Z,1.45
2022-11-01T20:09:19.857Z,1.40
2022-11-01T20:11:48.082Z,1.17
2022-11-01T20:14:16.589Z,0.95
2022-11-01T20:16:44.869Z,0.98
2022-11-01T20:19:16.430Z,0.73
2022-11-01T20:21:45.713Z,1.00
2022-11-01T20:24:15.701Z,0.88
2022-11-01T20:26:43.609Z,0.77
2022-11-01T20:29:12.070Z,0.82
2022-11-01T20:31:40.741Z,0.93
2022-11-01T20:34:11.877Z,0.88
2022-11-01T20:36:40.224Z,0.68
2022-11-01T20:39:10.473Z,0.90
2022-11-01T20:41:40.870Z,0.98
2022-11-01T20:44:08.649Z,0.77
2022-11-01T20:46:36.778Z,0.90
2022-11-01T20:49:04.784Z,0.90
2022-11-01T20:51:35.766Z,0.90
2022-11-01T20:54:04.015Z,0.80
2022-11-01T20:56:32.084Z,0.70
2022-11-01T21:01:28.243Z,0.95
2022-11-01T21:03:57.924Z,0.80
2022-11-01T21:06:28.803Z,0.40
2022-11-01T21:08:58.083Z,0.90
2022-11-01T21:11:44.288Z,0.77
2022-11-01T21:14:19.777Z,0.43
2022-11-01T21:16:50.844Z,0.70
2022-11-01T21:19:23.560Z,0.77
2022-11-01T21:21:59.671Z,0.52
2022-11-01T21:24:31.415Z,0.90
2022-11-01T21:27:22.097Z,0.47
2022-11-01T21:29:50.711Z,0.50
2022-11-01T21:32:30.194Z,0.50
2022-11-01T21:35:20.090Z,0.73
2022-11-01T21:37:54.127Z,0.55
2022-11-01T21:40:29.364Z,0.50
2022-11-01T21:42:58.174Z,1.33
2022-11-01T21:45:30.972Z,0.50
2022-11-01T21:48:17.174Z,0.55
2022-11-01T21:50:47.586Z,0.60
2022-11-01T21:53:15.303Z,0.60
2022-11-01T21:55:43.083Z,0.70
2022-11-01T21:58:11.009Z,0.60
2022-11-01T22:00:38.836Z,0.63
2022-11-01T22:03:06.923Z,1.00
2022-11-01T22:05:34.796Z,0.52
2022-11-01T22:08:02.890Z,0.70
2022-11-01T22:10:33.647Z,0.63
2022-11-01T22:13:06.481Z,0.65
2022-11-01T22:15:34.839Z,0.50
2022-11-01T22:18:02.842Z,0.60
2022-11-01T22:20:30.616Z,0.63
2022-11-01T22:22:58.493Z,0.73
2022-11-01T22:25:27.549Z,0.68
2022-11-01T22:27:55.458Z,0.52
2022-11-01T22:30:23.372Z,0.70
2022-11-01T22:32:51.173Z,0.73
2022-11-01T22:35:18.908Z,0.80
2022-11-01T22:37:46.586Z,0.60
2022-11-01T22:40:15.079Z,0.80
2022-11-01T22:42:43.126Z,0.63
2022-11-01T22:45:18.776Z,0.63
2022-11-01T22:47:47.184Z,0.80
2022-11-01T22:50:22.106Z,0.77
2022-11-01T22:52:50.463Z,0.70
2022-11-01T22:55:25.521Z,1.00
2022-11-01T22:58:05.616Z,1.17
2022-11-01T23:00:39.345Z,0.57
2022-11-01T23:03:46.665Z,0.50
2022-11-01T23:06:32.174Z,0.60
2022-11-01T23:09:10.659Z,0.70
2022-11-01T23:11:57.283Z,0.47
2022-11-01T23:14:36.564Z,0.75
2022-11-01T23:17:28.805Z,0.60
2022-11-01T23:20:01.341Z,0.75
2022-11-01T23:22:36.872Z,0.80
2022-11-01T23:25:05.351Z,0.75
2022-11-01T23:27:33.960Z,0.80
2022-11-01T23:30:02.888Z,0.77
2022-11-01T23:32:32.188Z,0.70
2022-11-01T23:35:15.297Z,0.55
2022-11-01T23:37:44.076Z,0.50
2022-11-01T23:40:18.414Z,0.80
2022-11-01T23:42:48.390Z,0.63
2022-11-01T23:45:30.399Z,0.80
2022-11-01T23:48:00.000Z,0.60
2022-11-01T23:50:31.634Z,0.73
2022-11-01T23:55:42.210Z,1.75
2022-11-01T23:58:18.198Z,0.98
